Time,TemperatureF,DewpointF,PressureIn,WindDirection,WindDirectionDegrees,WindSpeedMPH,WindSpeedGustMPH,Humidity,HourlyPrecipIn,Conditions,Clouds,dailyrainin,SolarRadiationWatts/m^2,SoftwareType,DateUTC
2013-09-19 00:22:00,42.0,39.0,-100.00,East,85,10.0,14.0,90,0.04,,,0.36,0.000000,,2013-09-19 06:22:00,
2013-09-19 00:32:00,42.0,39.0,-100.00,East,85,10.0,14.0,90,0.04,,,0.36,0.000000,,2013-09-19 06:32:00,
2013-09-19 00:43:00,42.0,39.0,-100.00,East,85,10.0,14.0,90,0.04,,,0.36,0.000000,,2013-09-19 06:43:00,
2013-09-19 00:52:00,42.0,39.0,-100.00,East,85,10.0,14.0,90,0.04,,,0.36,0.000000,,2013-09-19 06:52:00,
2013-09-19 01:22:00,42.0,40.0,-100.00,East,79,10.0,16.0,93,0.00,,,0.36,0.000000,,2013-09-19 07:22:00,
2013-09-19 01:33:00,42.0,40.0,-100.00,East,79,10.0,16.0,93,0.00,,,0.36,0.000000,,2013-09-19 07:33:00,
2013-09-19 01:42:00,42.0,40.0,-100.00,East,79,10.0,16.0,93,0.00,,,0.36,0.000000,,2013-09-19 07:42:00,
2013-09-19 01:52:00,42.0,40.0,-100.00,East,79,10.0,16.0,93,0.00,,,0.36,0.000000,,2013-09-19 07:52:00,
2013-09-19 02:22:00,43.0,40.0,-100.00,East,85,12.0,18.0,89,0.01,,,0.37,0.000000,,2013-09-19 08:22:00,
2013-09-19 02:32:00,43.0,40.0,-100.00,East,85,12.0,18.0,89,0.01,,,0.37,0.000000,,2013-09-19 08:32:00,
2013-09-19 02:42:00,43.0,40.0,-100.00,East,85,12.0,18.0,89,0.01,,,0.37,0.000000,,2013-09-19 08:42:00,
2013-09-19 02:52:00,43.0,40.0,-100.00,East,85,12.0,18.0,89,0.01,,,0.37,0.000000,,2013-09-19 08:52:00,
2013-09-19 03:21:00,42.0,39.0,-100.00,ENE,78,7.0,17.0,88,0.00,,,0.37,0.000000,,2013-09-19 09:21:00,
2013-09-19 03:33:00,42.0,39.0,-100.00,ENE,78,7.0,17.0,88,0.00,,,0.37,0.000000,,2013-09-19 09:33:00,
2013-09-19 03:43:00,42.0,39.0,-100.00,ENE,78,7.0,17.0,88,0.00,,,0.37,0.000000,,2013-09-19 09:43:00,
2013-09-19 03:53:00,42.0,39.0,-100.00,ENE,78,7.0,17.0,88,0.00,,,0.37,0.000000,,2013-09-19 09:53:00,
2013-09-19 04:23:00,42.0,39.0,-100.00,East,91,2.0,10.0,88,0.00,,,0.37,0.000000,,2013-09-19 10:23:00,
2013-09-19 04:33:00,42.0,39.0,-100.00,East,91,2.0,10.0,88,0.00,,,0.37,0.000000,,2013-09-19 10:33:00,
2013-09-19 04:43:00,42.0,39.0,-100.00,East,91,2.0,10.0,88,0.00,,,0.37,0.000000,,2013-09-19 10:43:00,
2013-09-19 04:52:00,42.0,39.0,-100.00,East,91,2.0,10.0,88,0.00,,,0.37,0.000000,,2013-09-19 10:52:00,
2013-09-19 05:22:00,41.0,40.0,-100.00,WNW,290,5.0,9.0,95,0.00,,,0.32,0.000000,,2013-09-19 11:22:00,
2013-09-19 05:33:00,41.0,40.0,-100.00,WNW,290,5.0,9.0,95,0.00,,,0.32,0.000000,,2013-09-19 11:33:00,
2013-09-19 05:42:00,41.0,40.0,-100.00,WNW,290,5.0,9.0,95,0.00,,,0.32,0.000000,,2013-09-19 11:42:00,
2013-09-19 05:52:00,41.0,40.0,-100.00,WNW,290,5.0,9.0,95,0.00,,,0.32,0.000000,,2013-09-19 11:52:00,
2013-09-19 06:21:00,40.0,39.0,-100.00,East,79,4.0,6.0,97,0.00,,,0.32,0.000000,,2013-09-19 12:21:00,
2013-09-19 06:32:00,40.0,39.0,-100.00,East,79,4.0,6.0,97,0.00,,,0.32,0.000000,,2013-09-19 12:32:00,
2013-09-19 06:43:00,40.0,39.0,-100.00,East,79,4.0,6.0,97,0.00,,,0.32,0.000000,,2013-09-19 12:43:00,
2013-09-19 06:52:00,40.0,39.0,-100.00,East,79,4.0,6.0,97,0.00,,,0.32,0.000000,,2013-09-19 12:52:00,
2013-09-19 07:22:00,39.0,39.0,-100.00,ENE,67,8.0,11.0,99,0.00,,,0.31,1.000000,,2013-09-19 13:22:00,
2013-09-19 07:32:00,39.0,39.0,-100.00,ENE,67,8.0,11.0,99,0.00,,,0.31,1.000000,,2013-09-19 13:32:00,
2013-09-19 07:42:00,39.0,39.0,-100.00,ENE,67,8.0,11.0,99,0.00,,,0.31,1.000000,,2013-09-19 13:42:00,
2013-09-19 07:52:00,39.0,39.0,-100.00,ENE,67,8.0,11.0,99,0.00,,,0.31,1.000000,,2013-09-19 13:52:00,
2013-09-19 08:22:00,41.0,40.0,-100.00,East,90,5.0,13.0,98,0.00,,,0.31,42.000000,,2013-09-19 14:22:00,
2013-09-19 08:32:00,41.0,40.0,-100.00,East,90,5.0,13.0,98,0.00,,,0.31,42.000000,,2013-09-19 14:32:00,
2013-09-19 08:42:00,41.0,40.0,-100.00,East,90,5.0,13.0,98,0.00,,,0.31,42.000000,,2013-09-19 14:42:00,
2013-09-19 08:52:00,41.0,40.0,-100.00,East,90,5.0,13.0,98,0.00,,,0.31,42.000000,,2013-09-19 14:52:00,
2013-09-19 09:53:00,50.0,41.0,-100.00,SW,217,2.0,8.0,72,0.00,,,0.31,262.000000,,2013-09-19 15:53:00,
2013-09-19 10:24:00,47.0,42.0,-100.00,West,262,8.0,11.0,84,0.00,,,0.31,423.000000,,2013-09-19 16:24:00,
2013-09-19 10:33:00,47.0,42.0,-100.00,West,262,8.0,11.0,84,0.00,,,0.31,423.000000,,2013-09-19 16:33:00,
2013-09-19 10:43:00,47.0,42.0,-100.00,West,262,8.0,11.0,84,0.00,,,0.31,423.000000,,2013-09-19 16:43:00,
2013-09-19 10:52:00,47.0,42.0,-100.00,West,262,8.0,11.0,84,0.00,,,0.31,423.000000,,2013-09-19 16:52:00,
2013-09-19 11:23:00,49.0,41.0,-100.00,West,259,10.0,16.0,74,0.00,,,0.31,558.000000,,2013-09-19 17:23:00,
2013-09-19 11:34:00,49.0,41.0,-100.00,West,259,10.0,16.0,74,0.00,,,0.31,558.000000,,2013-09-19 17:34:00,
2013-09-19 11:42:00,49.0,41.0,-100.00,West,259,10.0,16.0,74,0.00,,,0.31,558.000000,,2013-09-19 17:42:00,
2013-09-19 11:53:00,49.0,41.0,-100.00,West,259,10.0,16.0,74,0.00,,,0.31,558.000000,,2013-09-19 17:53:00,
2013-09-19 12:22:00,50.0,39.0,-100.00,West,260,10.0,19.0,65,0.00,,,0.31,641.000000,,2013-09-19 18:22:00,
2013-09-19 12:32:00,50.0,39.0,-100.00,West,260,10.0,19.0,65,0.00,,,0.31,641.000000,,2013-09-19 18:32:00,
2013-09-19 12:42:00,50.0,39.0,-100.00,West,260,10.0,19.0,65,0.00,,,0.31,641.000000,,2013-09-19 18:42:00,
2013-09-19 12:52:00,50.0,39.0,-100.00,West,260,10.0,19.0,65,0.00,,,0.31,641.000000,,2013-09-19 18:52:00,
2013-09-19 13:22:00,54.0,40.0,-100.00,WSW,250,10.0,15.0,59,0.00,,,0.31,831.000000,,2013-09-19 19:22:00,
2013-09-19 13:32:00,54.0,40.0,-100.00,WSW,250,10.0,15.0,59,0.00,,,0.31,831.000000,,2013-09-19 19:32:00,
2013-09-19 13:42:00,54.0,40.0,-100.00,WSW,250,10.0,15.0,59,0.00,,,0.31,831.000000,,2013-09-19 19:42:00,
2013-09-19 13:52:00,54.0,40.0,-100.00,WSW,250,10.0,15.0,59,0.00,,,0.31,831.000000,,2013-09-19 19:52:00,
2013-09-19 14:22:00,57.0,38.0,-100.00,WSW,251,10.0,21.0,49,0.00,,,0.31,843.000000,,2013-09-19 20:22:00,
2013-09-19 14:32:00,57.0,38.0,-100.00,WSW,251,10.0,21.0,49,0.00,,,0.31,843.000000,,2013-09-19 20:32:00,
2013-09-19 14:42:00,57.0,38.0,-100.00,WSW,251,10.0,21.0,49,0.00,,,0.31,843.000000,,2013-09-19 20:42:00,
2013-09-19 14:52:00,57.0,38.0,-100.00,WSW,251,10.0,21.0,49,0.00,,,0.31,843.000000,,2013-09-19 20:52:00,
2013-09-19 15:22:00,60.0,32.0,-100.00,West,274,13.0,22.0,35,0.00,,,0.14,804.000000,,2013-09-19 21:22:00,
2013-09-19 15:34:00,60.0,32.0,-100.00,West,274,13.0,22.0,35,0.00,,,0.14,804.000000,,2013-09-19 21:34:00,
2013-09-19 15:44:00,60.0,32.0,-100.00,West,274,13.0,22.0,35,0.00,,,0.14,804.000000,,2013-09-19 21:44:00,
2013-09-19 15:55:00,60.0,32.0,-100.00,West,274,13.0,22.0,35,0.00,,,0.14,804.000000,,2013-09-19 21:55:00,
2013-09-19 16:24:00,60.0,23.0,-100.00,West,262,12.0,24.0,24,0.00,,,-99.99,700.000000,,2013-09-19 22:24:00,
2013-09-19 16:33:00,60.0,23.0,-100.00,West,262,12.0,24.0,24,0.00,,,-99.99,700.000000,,2013-09-19 22:33:00,
2013-09-19 16:42:00,60.0,23.0,-100.00,West,262,12.0,24.0,24,0.00,,,-99.99,700.000000,,2013-09-19 22:42:00,
2013-09-19 16:53:00,60.0,23.0,-100.00,West,262,12.0,24.0,24,0.00,,,-99.99,700.000000,,2013-09-19 22:53:00,
2013-09-19 17:22:00,60.0,20.0,-100.00,West,269,13.0,27.0,21,0.00,,,0.06,547.000000,,2013-09-19 23:22:00,
2013-09-19 17:34:00,60.0,20.0,-100.00,West,269,13.0,27.0,21,0.00,,,0.06,547.000000,,2013-09-19 23:34:00,
2013-09-19 17:43:00,60.0,20.0,-100.00,West,269,13.0,27.0,21,0.00,,,0.06,547.000000,,2013-09-19 23:43:00,
2013-09-19 17:53:00,60.0,20.0,-100.00,West,269,13.0,27.0,21,0.00,,,0.06,547.000000,,2013-09-19 23:53:00,
2013-09-19 18:22:00,58.0,17.0,-100.00,West,267,14.0,26.0,20,0.00,,,0.05,357.000000,,2013-09-20 00:22:00,
2013-09-19 18:32:00,58.0,17.0,-100.00,West,267,14.0,26.0,20,0.00,,,0.05,357.000000,,2013-09-20 00:32:00,
2013-09-19 18:42:00,58.0,17.0,-100.00,West,267,14.0,26.0,20,0.00,,,0.05,357.000000,,2013-09-20 00:42:00,
2013-09-19 18:52:00,58.0,17.0,-100.00,West,267,14.0,26.0,20,0.00,,,0.05,357.000000,,2013-09-20 00:52:00,
2013-09-19 19:22:00,54.0,17.0,-100.00,West,281,8.0,22.0,23,0.00,,,0.05,149.000000,,2013-09-20 01:22:00,
2013-09-19 19:32:00,54.0,17.0,-100.00,West,281,8.0,22.0,23,0.00,,,0.05,149.000000,,2013-09-20 01:32:00,
2013-09-19 19:42:00,54.0,17.0,-100.00,West,281,8.0,22.0,23,0.00,,,0.05,149.000000,,2013-09-20 01:42:00,
2013-09-19 20:22:00,49.0,19.0,-100.00,North,355,1.0,12.0,30,-99.99,,,0.05,4.000000,,2013-09-20 02:22:00,
2013-09-19 20:32:00,49.0,19.0,-100.00,North,355,1.0,12.0,30,-99.99,,,0.05,4.000000,,2013-09-20 02:32:00,
2013-09-19 20:42:00,49.0,19.0,-100.00,North,355,1.0,12.0,30,-99.99,,,0.05,4.000000,,2013-09-20 02:42:00,
2013-09-19 20:52:00,49.0,19.0,-100.00,North,355,1.0,12.0,30,-99.99,,,0.05,4.000000,,2013-09-20 02:52:00,
2013-09-19 21:23:00,44.0,21.0,-100.00,East,100,3.0,5.0,39,0.00,,,0.05,0.000000,,2013-09-20 03:23:00,
2013-09-19 21:34:00,44.0,21.0,-100.00,East,100,3.0,5.0,39,0.00,,,0.05,0.000000,,2013-09-20 03:34:00,
2013-09-19 21:45:00,44.0,21.0,-100.00,East,100,3.0,5.0,39,0.00,,,0.05,0.000000,,2013-09-20 03:45:00,
2013-09-19 21:55:00,44.0,21.0,-100.00,East,100,3.0,5.0,39,0.00,,,0.05,0.000000,,2013-09-20 03:55:00,
2013-09-19 22:24:00,40.0,27.0,-100.00,ENE,75,4.0,5.0,59,0.00,,,0.05,0.000000,,2013-09-20 04:24:00,
2013-09-19 22:34:00,40.0,27.0,-100.00,ENE,75,4.0,5.0,59,0.00,,,0.05,0.000000,,2013-09-20 04:34:00,
2013-09-19 22:44:00,40.0,27.0,-100.00,ENE,75,4.0,5.0,59,0.00,,,0.05,0.000000,,2013-09-20 04:44:00,
2013-09-19 22:53:00,40.0,27.0,-100.00,ENE,75,4.0,5.0,59,0.00,,,0.05,0.000000,,2013-09-20 04:53:00,
2013-09-19 23:23:00,40.0,23.0,-100.00,East,80,4.0,5.0,51,0.00,,,0.05,0.000000,,2013-09-20 05:23:00,
2013-09-19 23:34:00,40.0,23.0,-100.00,East,80,4.0,5.0,51,0.00,,,0.05,0.000000,,2013-09-20 05:34:00,
2013-09-19 23:43:00,40.0,23.0,-100.00,East,80,4.0,5.0,51,0.00,,,0.05,0.000000,,2013-09-20 05:43:00,
2013-09-19 23:53:00,40.0,23.0,-100.00,East,80,4.0,5.0,51,0.00,,,0.05,0.000000,,2013-09-20 05:53:00,